Time;durP1;ratioP1;P1;durP2;ratioP2;P2;SDS_P1;SDS_P2;PMS_P1;PMS_P2;Temp;Humidity;BMP_temperature;BMP_pressure;BME280_temperature;BME280_humidity;BME280_pressure;Samples;Min_cycle;Max_cycle;Signal;HPM_P1;HPM_P2
2021/12/12 00:00:29;;;;;;;21.20;16.60;;;;;;;;;;106201;1289;64873;-27
2021/12/12 00:03:15;;;;;;;21.90;15.70;;;;;;;;;;106312;1285;64807;-28
2021/12/12 00:05:44;;;;;;;20.70;15.40;;;;;;;;;;106183;1289;64915;-28
2021/12/12 00:08:11;;;;;;;21.90;16.50;;;;;;;;;;106314;1285;64723;-26
2021/12/12 00:10:39;;;;;;;22.90;15.90;;;;;;;;;;106301;1284;65113;-27
2021/12/12 00:13:09;;;;;;;21.40;16.30;;;;;;;;;;106245;1286;64790;-29
2021/12/12 00:15:36;;;;;;;23.60;17.60;;;;;;;;;;106061;1287;64911;-29
2021/12/12 00:18:04;;;;;;;20.20;15.70;;;;;;;;;;106224;1287;64861;-23
2021/12/12 00:20:31;;;;;;;21.80;16.10;;;;;;;;;;106218;1286;64813;-27
2021/12/12 00:22:59;;;;;;;21.40;16.00;;;;;;;;;;105981;1287;64792;-30
2021/12/12 00:25:32;;;;;;;23.00;17.20;;;;;;;;;;106185;1287;64863;-27
2021/12/12 00:27:59;;;;;;;22.40;17.00;;;;;;;;;;106191;1287;64765;-27
2021/12/12 00:30:27;;;;;;;22.10;16.50;;;;;;;;;;106185;1288;64909;-28
2021/12/12 00:32:54;;;;;;;22.50;16.40;;;;;;;;;;106134;1287;64829;-32
2021/12/12 00:35:22;;;;;;;22.40;16.30;;;;;;;;;;106111;1288;64905;-29
2021/12/12 00:37:52;;;;;;;21.20;16.10;;;;;;;;;;106127;1287;64814;-28
2021/12/12 00:40:28;;;;;;;20.60;17.20;;;;;;;;;;106209;1287;64920;-29
2021/12/12 00:42:56;;;;;;;21.80;15.60;;;;;;;;;;106200;1287;64749;-28
2021/12/12 00:45:24;;;;;;;21.30;15.80;;;;;;;;;;105947;1291;65023;-30
2021/12/12 00:47:52;;;;;;;20.20;16.40;;;;;;;;;;106178;1287;64839;-29
2021/12/12 00:50:32;;;;;;;21.30;15.40;;;;;;;;;;106197;1285;64890;-27
2021/12/12 00:53:02;;;;;;;21.90;16.80;;;;;;;;;;106143;1287;64754;-26
2021/12/12 00:55:30;;;;;;;21.30;16.30;;;;;;;;;;106135;1287;64875;-26
2021/12/12 00:57:57;;;;;;;21.10;15.50;;;;;;;;;;106211;1287;64742;-25
2021/12/12 01:00:27;;;;;;;21.10;16.50;;;;;;;;;;106218;1288;64836;-23
2021/12/12 01:02:54;;;;;;;20.70;15.60;;;;;;;;;;106120;1287;64882;-28
2021/12/12 01:05:22;;;;;;;21.70;16.30;;;;;;;;;;106196;1287;65021;-28
2021/12/12 01:07:50;;;;;;;18.80;14.30;;;;;;;;;;106230;1287;64872;-45
2021/12/12 01:10:19;;;;;;;18.70;13.90;;;;;;;;;;106133;1287;64736;-25
2021/12/12 01:12:47;;;;;;;18.60;14.30;;;;;;;;;;106140;1288;64919;-25
2021/12/12 01:15:18;;;;;;;20.90;15.80;;;;;;;;;;106157;1288;64813;-33
2021/12/12 01:17:47;;;;;;;19.80;15.20;;;;;;;;;;106268;1286;64794;-25
2021/12/12 01:20:21;;;;;;;21.10;15.40;;;;;;;;;;106191;1287;64839;-25
2021/12/12 01:22:50;;;;;;;19.80;15.20;;;;;;;;;;106207;1285;64860;-27
2021/12/12 01:25:20;;;;;;;19.60;15.30;;;;;;;;;;106203;1287;64851;-28
2021/12/12 01:27:48;;;;;;;21.20;15.90;;;;;;;;;;106183;1285;64859;-28
2021/12/12 01:30:16;;;;;;;19.90;15.30;;;;;;;;;;106206;1288;64821;-28
2021/12/12 01:32:44;;;;;;;23.30;15.50;;;;;;;;;;106222;1287;64821;-28
2021/12/12 01:35:15;;;;;;;22.70;15.90;;;;;;;;;;106198;1288;64749;-28
2021/12/12 01:40:44;;;;;;;20.90;15.60;;;;;;;;;;106063;1286;64908;-28
2021/12/12 01:43:21;;;;;;;21.90;16.10;;;;;;;;;;106218;1287;64768;-27
2021/12/12 01:45:51;;;;;;;21.90;16.50;;;;;;;;;;106211;1288;65142;-28
2021/12/12 01:48:18;;;;;;;23.50;16.90;;;;;;;;;;106250;1288;64808;-28
2021/12/12 01:50:47;;;;;;;22.00;16.70;;;;;;;;;;106212;1287;65048;-27
2021/12/12 01:53:15;;;;;;;22.40;17.10;;;;;;;;;;106200;1285;64843;-28
2021/12/12 01:55:46;;;;;;;22.70;16.80;;;;;;;;;;106136;1286;64853;-28
2021/12/12 01:58:16;;;;;;;20.10;15.80;;;;;;;;;;106201;1287;64902;-28
2021/12/12 02:00:46;;;;;;;21.70;17.00;;;;;;;;;;106094;1289;65424;-28
2021/12/12 02:03:16;;;;;;;21.90;16.40;;;;;;;;;;106201;1288;64845;-27
2021/12/12 02:05:44;;;;;;;21.10;16.10;;;;;;;;;;106156;1286;64869;-28
2021/12/12 02:08:14;;;;;;;21.00;16.30;;;;;;;;;;106124;1279;64978;-28
2021/12/12 02:10:52;;;;;;;20.00;15.50;;;;;;;;;;106213;1286;64864;-30
2021/12/12 02:13:22;;;;;;;22.70;17.20;;;;;;;;;;106106;1288;64786;-25
2021/12/12 02:15:50;;;;;;;20.60;16.30;;;;;;;;;;106093;1287;64856;-25
2021/12/12 02:18:19;;;;;;;23.90;16.50;;;;;;;;;;106188;1288;64978;-30
2021/12/12 02:21:17;;;;;;;22.50;17.20;;;;;;;;;;106256;1290;64837;-28
2021/12/12 02:37:46;;;;;;;22.70;16.60;;;;;;;;;;106189;1279;64728;-25
2021/12/12 02:40:16;;;;;;;21.50;16.00;;;;;;;;;;106201;1288;64737;-26
2021/12/12 02:42:43;;;;;;;24.10;16.20;;;;;;;;;;106202;1286;65547;-35
2021/12/12 02:45:11;;;;;;;22.00;16.60;;;;;;;;;;106185;1288;64740;-25
2021/12/12 02:47:39;;;;;;;21.20;16.40;;;;;;;;;;106191;1286;64754;-27
2021/12/12 02:50:13;;;;;;;23.50;17.00;;;;;;;;;;106175;1285;64837;-33
2021/12/12 02:52:49;;;;;;;22.60;16.60;;;;;;;;;;106209;1286;64947;-27
2021/12/12 02:55:19;;;;;;;24.00;16.90;;;;;;;;;;106196;1288;64717;-29
2021/12/12 02:57:46;;;;;;;22.70;17.10;;;;;;;;;;106196;1287;64909;-25
2021/12/12 03:00:17;;;;;;;21.30;16.50;;;;;;;;;;106195;1283;64910;-26
2021/12/12 03:02:46;;;;;;;21.80;15.70;;;;;;;;;;106139;1288;64843;-28
2021/12/12 03:05:15;;;;;;;21.00;16.70;;;;;;;;;;106201;1287;64752;-28
2021/12/12 03:07:42;;;;;;;20.60;15.80;;;;;;;;;;106186;1288;64748;-30
2021/12/12 03:10:12;;;;;;;23.60;16.70;;;;;;;;;;106214;1287;65430;-27
2021/12/12 03:12:39;;;;;;;22.80;16.20;;;;;;;;;;106228;1289;64737;-28
2021/12/12 03:15:06;;;;;;;22.40;16.30;;;;;;;;;;106183;1286;64834;-26
2021/12/12 03:17:35;;;;;;;25.20;17.30;;;;;;;;;;106096;1291;64867;-26
2021/12/12 03:20:06;;;;;;;24.00;18.10;;;;;;;;;;106239;1288;64848;-25
2021/12/12 03:22:33;;;;;;;22.40;15.80;;;;;;;;;;106219;1288;64732;-25
2021/12/12 03:25:00;;;;;;;24.00;16.40;;;;;;;;;;106162;1282;64805;-25
2021/12/12 03:27:27;;;;;;;23.00;16.80;;;;;;;;;;106230;1287;64738;-28
2021/12/12 03:29:54;;;;;;;21.70;16.20;;;;;;;;;;106179;1288;64742;-28
2021/12/12 03:32:22;;;;;;;22.10;17.20;;;;;;;;;;106194;1289;64794;-28
2021/12/12 03:34:52;;;;;;;21.90;16.40;;;;;;;;;;106166;1289;65490;-27
2021/12/12 03:37:22;;;;;;;21.10;16.10;;;;;;;;;;106193;1288;64897;-28
2021/12/12 03:39:51;;;;;;;20.00;15.60;;;;;;;;;;106187;1288;65486;-27
2021/12/12 03:42:20;;;;;;;19.70;15.70;;;;;;;;;;106222;1278;64880;-31
2021/12/12 03:44:47;;;;;;;21.40;16.00;;;;;;;;;;106202;1286;64808;-30
2021/12/12 03:47:18;;;;;;;20.60;15.40;;;;;;;;;;106272;1285;64972;-26
2021/12/12 03:49:46;;;;;;;22.00;15.60;;;;;;;;;;106228;1287;64971;-26
2021/12/12 03:52:15;;;;;;;22.80;15.50;;;;;;;;;;106194;1289;65025;-24
2021/12/12 03:54:42;;;;;;;20.80;15.30;;;;;;;;;;106127;1288;64840;-25
2021/12/12 03:57:09;;;;;;;21.10;15.30;;;;;;;;;;106191;1289;64823;-30
2021/12/12 03:59:36;;;;;;;19.80;14.80;;;;;;;;;;106185;1286;64837;-27
2021/12/12 04:02:04;;;;;;;21.50;15.30;;;;;;;;;;106246;1288;64838;-26
2021/12/12 04:04:34;;;;;;;18.80;14.20;;;;;;;;;;106194;1287;64734;-28
2021/12/12 04:07:04;;;;;;;23.20;15.70;;;;;;;;;;106185;1287;64938;-25
2021/12/12 04:09:32;;;;;;;20.60;15.10;;;;;;;;;;106133;1285;64981;-25
2021/12/12 04:12:01;;;;;;;21.70;14.90;;;;;;;;;;106223;1287;64962;-28
2021/12/12 04:14:28;;;;;;;20.00;15.10;;;;;;;;;;106181;1288;65957;-24
2021/12/12 04:16:57;;;;;;;20.50;14.50;;;;;;;;;;106103;1291;64964;-25
2021/12/12 04:19:33;;;;;;;19.40;13.90;;;;;;;;;;106211;1288;64765;-28
2021/12/12 04:22:01;;;;;;;20.00;14.40;;;;;;;;;;106205;1287;64736;-29
2021/12/12 04:24:30;;;;;;;20.70;14.90;;;;;;;;;;106212;1287;64838;-26
2021/12/12 04:26:58;;;;;;;20.80;16.00;;;;;;;;;;106197;1289;64865;-25
2021/12/12 04:29:28;;;;;;;23.50;14.70;;;;;;;;;;106206;1289;64808;-28
2021/12/12 04:31:56;;;;;;;21.40;15.20;;;;;;;;;;106188;1287;64772;-28
2021/12/12 04:34:24;;;;;;;19.50;14.40;;;;;;;;;;106180;1286;64740;-27
2021/12/12 04:36:52;;;;;;;19.20;14.30;;;;;;;;;;106215;1289;64880;-28
2021/12/12 04:39:21;;;;;;;19.30;15.10;;;;;;;;;;106199;1289;64793;-26
2021/12/12 04:41:49;;;;;;;19.70;14.00;;;;;;;;;;106229;1290;64776;-25
2021/12/12 04:44:25;;;;;;;20.00;14.90;;;;;;;;;;106256;1285;64824;-27
2021/12/12 04:50:04;;;;;;;17.90;13.60;;;;;;;;;;106151;1287;64873;-26
2021/12/12 04:52:31;;;;;;;;;;;;;;;;;;106226;1288;64885;-27
2021/12/12 04:55:01;;;;;;;17.90;13.20;;;;;;;;;;106191;1287;64737;-27
2021/12/12 04:57:31;;;;;;;18.80;13.70;;;;;;;;;;106184;1288;64839;-28
2021/12/12 05:00:10;;;;;;;20.40;14.60;;;;;;;;;;106153;1287;64868;-28
2021/12/12 05:02:58;;;;;;;18.90;14.60;;;;;;;;;;106226;1290;64813;-27
2021/12/12 05:05:31;;;;;;;20.10;14.90;;;;;;;;;;106167;1288;64847;-27
2021/12/12 05:07:58;;;;;;;18.80;14.50;;;;;;;;;;106226;1285;64764;-28
2021/12/12 05:10:29;;;;;;;19.30;14.00;;;;;;;;;;106173;1288;64816;-28
2021/12/12 05:12:58;;;;;;;18.30;14.80;;;;;;;;;;106173;1288;63768;-36
2021/12/12 05:15:36;;;;;;;18.50;13.60;;;;;;;;;;106152;1287;64693;-27
2021/12/12 05:18:03;;;;;;;21.00;14.40;;;;;;;;;;106212;1286;64835;-28
2021/12/12 05:20:39;;;;;;;18.90;13.70;;;;;;;;;;106077;1277;64972;-27
2021/12/12 05:23:08;;;;;;;20.00;14.00;;;;;;;;;;106231;1289;64771;-27
2021/12/12 05:25:38;;;;;;;19.10;14.30;;;;;;;;;;106228;1286;64822;-27
2021/12/12 05:28:05;;;;;;;18.00;13.70;;;;;;;;;;106188;1289;64852;-25
2021/12/12 05:30:33;;;;;;;19.90;14.40;;;;;;;;;;106208;1287;64817;-25
2021/12/12 05:33:01;;;;;;;20.40;14.50;;;;;;;;;;106111;1285;64948;-24
2021/12/12 05:35:30;;;;;;;18.70;14.20;;;;;;;;;;106211;1289;64825;-25
2021/12/12 05:37:58;;;;;;;18.80;14.40;;;;;;;;;;106132;1288;64838;-24
2021/12/12 05:40:26;;;;;;;19.40;14.10;;;;;;;;;;106112;1288;64797;-25
2021/12/12 05:42:54;;;;;;;18.30;13.90;;;;;;;;;;106137;1287;64858;-25
2021/12/12 05:45:21;;;;;;;17.70;14.50;;;;;;;;;;106195;1285;64740;-25
2021/12/12 05:47:49;;;;;;;21.60;14.70;;;;;;;;;;106220;1290;64814;-25
2021/12/12 05:50:16;;;;;;;20.10;14.20;;;;;;;;;;106146;1287;64834;-25
2021/12/12 05:52:45;;;;;;;20.00;14.60;;;;;;;;;;106174;1292;65998;-25
2021/12/12 05:55:13;;;;;;;19.10;13.90;;;;;;;;;;106182;1286;64845;-24
2021/12/12 05:57:43;;;;;;;20.60;15.10;;;;;;;;;;106201;1286;64849;-25
2021/12/12 06:00:14;;;;;;;20.60;15.00;;;;;;;;;;106158;1286;64766;-24
2021/12/12 06:02:41;;;;;;;19.10;14.30;;;;;;;;;;106183;1289;64853;-24
2021/12/12 06:05:09;;;;;;;21.40;14.70;;;;;;;;;;106218;1285;64929;-25
2021/12/12 06:07:36;;;;;;;19.40;14.70;;;;;;;;;;106179;1288;64808;-31
2021/12/12 06:10:05;;;;;;;19.30;14.10;;;;;;;;;;106165;1287;64850;-25
2021/12/12 06:12:34;;;;;;;20.20;14.80;;;;;;;;;;106198;1289;64762;-31
2021/12/12 06:15:03;;;;;;;18.30;14.10;;;;;;;;;;106142;1288;64827;-27
2021/12/12 06:17:31;;;;;;;19.20;13.50;;;;;;;;;;106167;1289;64839;-25
2021/12/12 06:19:58;;;;;;;20.00;15.50;;;;;;;;;;106150;1286;64806;-25
2021/12/12 06:22:25;;;;;;;19.60;14.60;;;;;;;;;;106173;1289;64763;-27
2021/12/12 06:24:53;;;;;;;20.30;15.20;;;;;;;;;;106193;1287;64748;-28
2021/12/12 06:27:21;;;;;;;20.30;14.90;;;;;;;;;;106104;1286;203362;-24
2021/12/12 06:29:50;;;;;;;18.20;14.20;;;;;;;;;;106235;1288;64825;-24
2021/12/12 06:32:18;;;;;;;20.10;14.50;;;;;;;;;;106220;1289;64858;-25
2021/12/12 06:34:45;;;;;;;22.00;14.10;;;;;;;;;;106236;1289;64943;-25
2021/12/12 06:37:12;;;;;;;19.50;14.20;;;;;;;;;;106175;1289;64856;-25
2021/12/12 06:39:39;;;;;;;21.90;14.90;;;;;;;;;;106224;1286;64834;-25
2021/12/12 06:42:07;;;;;;;20.60;14.90;;;;;;;;;;106196;1287;64730;-27
2021/12/12 06:44:39;;;;;;;19.60;14.90;;;;;;;;;;106210;1290;64668;-27
2021/12/12 06:47:09;;;;;;;21.90;15.80;;;;;;;;;;106158;1289;64768;-26
2021/12/12 06:49:37;;;;;;;22.50;15.40;;;;;;;;;;106199;1285;66486;-27
2021/12/12 06:52:06;;;;;;;21.80;15.90;;;;;;;;;;106181;1286;64883;-26
2021/12/12 06:54:33;;;;;;;20.40;15.70;;;;;;;;;;106156;1288;64726;-27
2021/12/12 06:57:04;;;;;;;22.90;16.10;;;;;;;;;;106207;1286;64719;-26
2021/12/12 06:59:33;;;;;;;23.80;16.60;;;;;;;;;;106182;1289;64857;-26
2021/12/12 07:02:00;;;;;;;23.80;16.40;;;;;;;;;;106219;1287;64852;-26
2021/12/12 07:04:30;;;;;;;23.60;16.40;;;;;;;;;;106099;1288;64947;-27
2021/12/12 07:07:00;;;;;;;25.30;18.20;;;;;;;;;;106183;1288;65408;-31
2021/12/12 07:09:30;;;;;;;27.70;17.80;;;;;;;;;;106148;1288;64864;-25
2021/12/12 07:12:00;;;;;;;28.60;18.30;;;;;;;;;;106219;1289;64841;-26
2021/12/12 07:14:28;;;;;;;25.30;18.10;;;;;;;;;;106196;1289;64764;-24
2021/12/12 07:16:55;;;;;;;26.30;19.10;;;;;;;;;;106188;1289;64730;-25
2021/12/12 07:19:23;;;;;;;24.00;18.50;;;;;;;;;;106036;1290;64966;-29
2021/12/12 07:21:50;;;;;;;30.80;19.10;;;;;;;;;;106191;1288;64761;-33
2021/12/12 07:24:19;;;;;;;28.00;19.60;;;;;;;;;;106221;1289;64890;-35
2021/12/12 07:26:46;;;;;;;27.80;19.40;;;;;;;;;;106165;1278;64857;-26
2021/12/12 07:29:13;;;;;;;29.30;19.50;;;;;;;;;;106204;1291;64840;-27
2021/12/12 07:31:41;;;;;;;29.90;20.10;;;;;;;;;;106182;1289;64937;-27
2021/12/12 07:34:09;;;;;;;29.80;20.10;;;;;;;;;;106190;1290;64774;-27
2021/12/12 07:36:38;;;;;;;29.70;20.30;;;;;;;;;;106091;1289;65743;-28
2021/12/12 07:39:07;;;;;;;29.50;21.00;;;;;;;;;;106181;1289;64771;-25
2021/12/12 07:41:34;;;;;;;29.70;20.20;;;;;;;;;;106184;1286;64847;-25
2021/12/12 07:44:04;;;;;;;31.10;20.80;;;;;;;;;;106144;1289;64915;-25
2021/12/12 07:46:31;;;;;;;29.60;20.40;;;;;;;;;;106127;1289;64806;-25
2021/12/12 07:48:58;;;;;;;31.40;21.00;;;;;;;;;;106176;1289;64989;-28
2021/12/12 07:51:26;;;;;;;30.80;21.00;;;;;;;;;;106216;1289;64764;-27
2021/12/12 07:53:54;;;;;;;30.60;21.00;;;;;;;;;;106164;1289;64877;-24
2021/12/12 07:56:23;;;;;;;31.60;21.60;;;;;;;;;;106115;1277;64768;-24
2021/12/12 07:58:51;;;;;;;29.20;21.50;;;;;;;;;;106169;1289;64838;-25
2021/12/12 08:01:18;;;;;;;31.40;22.00;;;;;;;;;;106222;1286;64925;-25
2021/12/12 08:03:45;;;;;;;33.30;20.60;;;;;;;;;;106186;1287;64737;-25
2021/12/12 08:06:15;;;;;;;30.40;21.70;;;;;;;;;;106189;1289;65259;-25
2021/12/12 08:08:42;;;;;;;31.50;21.50;;;;;;;;;;106167;1289;65463;-25
2021/12/12 08:11:14;;;;;;;34.40;22.40;;;;;;;;;;106180;1288;64796;-25
2021/12/12 08:13:41;;;;;;;31.20;21.80;;;;;;;;;;106176;1289;64828;-28
2021/12/12 08:16:09;;;;;;;33.10;22.60;;;;;;;;;;106173;1289;64742;-27
2021/12/12 08:18:40;;;;;;;32.10;21.90;;;;;;;;;;106160;1289;64830;-25
2021/12/12 08:21:07;;;;;;;35.50;22.30;;;;;;;;;;106128;1289;65466;-29
2021/12/12 08:23:34;;;;;;;33.30;23.30;;;;;;;;;;106203;1286;64784;-26
2021/12/12 08:26:02;;;;;;;33.80;23.20;;;;;;;;;;106195;1287;64991;-25
2021/12/12 08:28:30;;;;;;;36.30;24.60;;;;;;;;;;106108;1289;64965;-28
2021/12/12 08:30:57;;;;;;;34.10;23.00;;;;;;;;;;106168;1286;64996;-28
2021/12/12 08:33:24;;;;;;;37.90;23.30;;;;;;;;;;106145;1289;64726;-26
2021/12/12 08:35:51;;;;;;;32.70;23.60;;;;;;;;;;106140;1289;64938;-25
2021/12/12 08:38:18;;;;;;;35.00;24.20;;;;;;;;;;106107;1288;64843;-23
2021/12/12 08:40:49;;;;;;;34.30;24.40;;;;;;;;;;106186;1288;64808;-25
2021/12/12 08:43:17;;;;;;;34.10;23.60;;;;;;;;;;106209;1289;64809;-27
2021/12/12 08:45:50;;;;;;;35.00;22.80;;;;;;;;;;106176;1285;64856;-28
2021/12/12 08:48:19;;;;;;;33.70;23.90;;;;;;;;;;106258;1289;64983;-32
2021/12/12 08:50:49;;;;;;;37.20;25.20;;;;;;;;;;106169;1289;64921;-28
2021/12/12 08:53:17;;;;;;;36.60;24.50;;;;;;;;;;106201;1289;64788;-26
2021/12/12 08:55:45;;;;;;;39.90;26.60;;;;;;;;;;106213;1289;64702;-32
2021/12/12 08:58:14;;;;;;;39.50;25.50;;;;;;;;;;106194;1289;63584;-30
2021/12/12 09:00:47;;;;;;;36.70;25.40;;;;;;;;;;106211;1289;64793;-28
2021/12/12 09:03:16;;;;;;;38.20;26.40;;;;;;;;;;106231;1286;64700;-25
2021/12/12 09:05:43;;;;;;;40.20;25.90;;;;;;;;;;106192;1289;64946;-25
2021/12/12 09:08:12;;;;;;;37.10;25.00;;;;;;;;;;106229;1289;64834;-28
2021/12/12 09:10:45;;;;;;;40.60;27.10;;;;;;;;;;106203;1289;64965;-28
2021/12/12 09:13:16;;;;;;;38.30;26.50;;;;;;;;;;106250;1289;64805;-26
2021/12/12 09:15:46;;;;;;;37.70;27.00;;;;;;;;;;106217;1289;64815;-25
2021/12/12 09:18:18;;;;;;;38.20;26.00;;;;;;;;;;106135;1290;65514;-26
2021/12/12 09:20:50;;;;;;;39.80;26.30;;;;;;;;;;106202;1289;64720;-30
2021/12/12 09:23:34;;;;;;;37.40;26.30;;;;;;;;;;106154;1289;64837;-28
2021/12/12 09:26:21;;;;;;;40.60;27.50;;;;;;;;;;106159;1289;64863;-28
2021/12/12 09:28:52;;;;;;;41.40;26.90;;;;;;;;;;106143;1290;64695;-31
2021/12/12 09:31:26;;;;;;;41.10;27.00;;;;;;;;;;106142;1290;64883;-25
2021/12/12 09:33:59;;;;;;;38.40;27.30;;;;;;;;;;106085;1289;64904;-24
2021/12/12 09:36:56;;;;;;;36.80;26.50;;;;;;;;;;106166;1285;64806;-24
2021/12/12 09:39:29;;;;;;;38.90;26.20;;;;;;;;;;105990;1289;65385;-27
2021/12/12 09:42:09;;;;;;;37.80;26.20;;;;;;;;;;106159;1286;64768;-27
2021/12/12 09:44:37;;;;;;;36.20;25.60;;;;;;;;;;106115;1288;64700;-25
2021/12/12 09:47:28;;;;;;;38.70;25.30;;;;;;;;;;106202;1288;64838;-25
2021/12/12 09:53:05;;;;;;;35.40;25.90;;;;;;;;;;106186;1286;64777;-28
2021/12/12 09:55:32;;;;;;;36.70;26.60;;;;;;;;;;106161;1289;64741;-29
2021/12/12 09:58:19;;;;;;;37.00;25.70;;;;;;;;;;106162;1287;64893;-27
2021/12/12 10:00:52;;;;;;;38.90;26.40;;;;;;;;;;106102;1292;64705;-30
2021/12/12 10:03:22;;;;;;;33.20;24.40;;;;;;;;;;106228;1286;65155;-25
2021/12/12 10:05:49;;;;;;;37.40;26.40;;;;;;;;;;106209;1287;64703;-25
2021/12/12 10:08:19;;;;;;;36.90;26.50;;;;;;;;;;106189;1289;64771;-25
2021/12/12 10:10:55;;;;;;;37.90;26.10;;;;;;;;;;106167;1289;64811;-28
2021/12/12 10:13:28;;;;;;;34.10;23.10;;;;;;;;;;106226;1286;64966;-28
2021/12/12 10:15:57;;;;;;;40.30;25.00;;;;;;;;;;106193;1290;64939;-28
2021/12/12 10:18:43;;;;;;;35.90;25.10;;;;;;;;;;106215;1286;64703;-25
2021/12/12 10:21:12;;;;;;;36.10;23.60;;;;;;;;;;106175;1287;65175;-25
2021/12/12 10:23:45;;;;;;;34.50;24.40;;;;;;;;;;106189;1289;64908;-28
2021/12/12 10:26:16;;;;;;;34.80;24.50;;;;;;;;;;106172;1288;64824;-27
2021/12/12 10:28:46;;;;;;;36.20;24.40;;;;;;;;;;106173;1290;64804;-29
2021/12/12 10:31:17;;;;;;;33.50;23.60;;;;;;;;;;106213;1289;64848;-25
2021/12/12 10:34:05;;;;;;;34.90;23.20;;;;;;;;;;106175;1289;64736;-28
2021/12/12 10:36:52;;;;;;;33.80;23.30;;;;;;;;;;106165;1287;64840;-28
2021/12/12 10:39:22;;;;;;;35.30;23.50;;;;;;;;;;106001;1291;64747;-29
2021/12/12 10:42:07;;;;;;;33.00;23.90;;;;;;;;;;106148;1289;64808;-25
2021/12/12 10:44:43;;;;;;;32.70;22.90;;;;;;;;;;106133;1291;64908;-25
2021/12/12 10:47:13;;;;;;;36.50;23.00;;;;;;;;;;106178;1290;64738;-24
2021/12/12 10:49:52;;;;;;;37.10;24.40;;;;;;;;;;106176;1289;64801;-28
2021/12/12 10:52:25;;;;;;;36.30;23.60;;;;;;;;;;106253;1288;64846;-25
2021/12/12 10:54:55;;;;;;;36.00;23.90;;;;;;;;;;105966;1289;64969;-25
2021/12/12 10:57:28;;;;;;;35.40;24.70;;;;;;;;;;106208;1287;64703;-31
2021/12/12 10:59:56;;;;;;;39.50;24.70;;;;;;;;;;106136;1289;64963;-25
2021/12/12 11:02:32;;;;;;;38.60;25.00;;;;;;;;;;106191;1287;64807;-26
2021/12/12 11:05:06;;;;;;;37.10;26.70;;;;;;;;;;106214;1289;65009;-27
2021/12/12 11:07:37;;;;;;;41.40;26.20;;;;;;;;;;106205;1286;65547;-25
2021/12/12 11:10:05;;;;;;;42.80;27.20;;;;;;;;;;106187;1288;64711;-26
2021/12/12 11:12:35;;;;;;;39.60;26.40;;;;;;;;;;106219;1287;64836;-25
2021/12/12 11:15:05;;;;;;;41.20;27.30;;;;;;;;;;106213;1285;64835;-25
2021/12/12 11:17:36;;;;;;;36.90;25.80;;;;;;;;;;106196;1288;64912;-28
2021/12/12 11:20:06;;;;;;;40.10;26.40;;;;;;;;;;106173;1289;64879;-28
2021/12/12 11:22:40;;;;;;;44.90;27.50;;;;;;;;;;106168;1282;64778;-28
2021/12/12 11:25:10;;;;;;;39.50;25.50;;;;;;;;;;106222;1289;64920;-26
2021/12/12 11:27:42;;;;;;;39.90;25.30;;;;;;;;;;106174;1288;64774;-28
2021/12/12 11:30:18;;;;;;;37.10;25.50;;;;;;;;;;106204;1288;64892;-27
2021/12/12 11:32:46;;;;;;;39.40;26.30;;;;;;;;;;106174;1286;65252;-31
2021/12/12 11:35:15;;;;;;;40.20;26.20;;;;;;;;;;106105;1287;64953;-29
2021/12/12 11:37:58;;;;;;;39.40;27.20;;;;;;;;;;106212;1287;64768;-28
2021/12/12 11:40:25;;;;;;;42.60;25.70;;;;;;;;;;106187;1290;64926;-28
2021/12/12 11:43:04;;;;;;;37.70;26.70;;;;;;;;;;106226;1286;64945;-27
2021/12/12 11:45:42;;;;;;;42.10;26.90;;;;;;;;;;106179;1288;64872;-30
2021/12/12 11:48:21;;;;;;;37.90;26.90;;;;;;;;;;106186;1286;64818;-24
2021/12/12 11:51:06;;;;;;;37.50;26.20;;;;;;;;;;106176;1286;65932;-27
2021/12/12 11:53:36;;;;;;;39.80;26.90;;;;;;;;;;106185;1289;64741;-24
2021/12/12 11:56:03;;;;;;;40.70;26.40;;;;;;;;;;106237;1285;64843;-25
2021/12/12 11:58:32;;;;;;;39.20;26.00;;;;;;;;;;106203;1287;64797;-24
2021/12/12 12:01:20;;;;;;;41.20;27.30;;;;;;;;;;106170;1287;64857;-25
2021/12/12 12:03:59;;;;;;;37.90;24.50;;;;;;;;;;105799;1288;64823;-25
2021/12/12 12:06:33;;;;;;;36.20;25.30;;;;;;;;;;106149;1286;64880;-28
2021/12/12 12:09:00;;;;;;;36.70;25.90;;;;;;;;;;106226;1286;64724;-24
2021/12/12 12:11:45;;;;;;;38.20;25.70;;;;;;;;;;106166;1290;66135;-25
2021/12/12 12:14:31;;;;;;;36.80;25.10;;;;;;;;;;106142;1289;64742;-25
2021/12/12 12:17:06;;;;;;;38.60;25.90;;;;;;;;;;106162;1288;64848;-24
2021/12/12 12:19:49;;;;;;;35.20;24.10;;;;;;;;;;106193;1289;64769;-28
2021/12/12 12:22:36;;;;;;;37.20;24.80;;;;;;;;;;106188;1285;64986;-25
2021/12/12 12:25:19;;;;;;;39.30;25.60;;;;;;;;;;106112;1290;64900;-25
2021/12/12 12:28:03;;;;;;;36.20;24.30;;;;;;;;;;106230;1289;64831;-26
2021/12/12 12:30:45;;;;;;;38.30;25.70;;;;;;;;;;106179;1286;66510;-25
2021/12/12 12:33:30;;;;;;;36.60;25.20;;;;;;;;;;106171;1287;64856;-27
2021/12/12 12:36:16;;;;;;;35.80;25.00;;;;;;;;;;106180;1289;64879;-27
2021/12/12 12:39:02;;;;;;;35.90;24.10;;;;;;;;;;106155;1287;64864;-25
2021/12/12 12:41:47;;;;;;;36.80;23.10;;;;;;;;;;106167;1286;64779;-25
2021/12/12 12:44:33;;;;;;;33.70;22.80;;;;;;;;;;106071;1288;65139;-25
2021/12/12 12:47:19;;;;;;;36.90;25.10;;;;;;;;;;106209;1288;64790;-29
2021/12/12 12:49:58;;;;;;;34.60;23.50;;;;;;;;;;106192;1289;64897;-28
2021/12/12 12:52:45;;;;;;;36.50;23.60;;;;;;;;;;106135;1289;64783;-28
2021/12/12 12:55:21;;;;;;;34.50;22.90;;;;;;;;;;106107;1289;64840;-26
2021/12/12 12:57:48;;;;;;;32.90;22.10;;;;;;;;;;106118;1290;64742;-27
2021/12/12 13:00:17;;;;;;;33.80;21.70;;;;;;;;;;106143;1289;65030;-24
2021/12/12 13:03:02;;;;;;;33.30;22.60;;;;;;;;;;106213;1283;64740;-26
2021/12/12 13:05:36;;;;;;;36.70;22.60;;;;;;;;;;106107;1287;64977;-25
2021/12/12 13:08:21;;;;;;;34.90;23.00;;;;;;;;;;106153;1290;64901;-41
2021/12/12 13:10:49;;;;;;;32.70;22.90;;;;;;;;;;106221;1286;64959;-25
2021/12/12 13:13:45;;;;;;;44.00;28.00;;;;;;;;;;106223;1288;64732;-24
2021/12/12 13:16:41;;;;;;;55.90;29.90;;;;;;;;;;105522;1293;64786;-25
2021/12/12 13:19:24;;;;;;;49.00;28.40;;;;;;;;;;105983;1290;64842;-24
2021/12/12 13:22:05;;;;;;;47.30;25.90;;;;;;;;;;106212;1286;64838;-24
2021/12/12 13:24:57;;;;;;;46.40;24.60;;;;;;;;;;106191;1286;64712;-24
2021/12/12 13:28:06;;;;;;;36.90;21.00;;;;;;;;;;106062;1287;64851;-23
2021/12/12 13:31:13;;;;;;;36.00;20.90;;;;;;;;;;106182;1288;64748;-23
2021/12/12 13:33:40;;;;;;;34.50;20.80;;;;;;;;;;105845;1290;65543;-30
2021/12/12 13:36:07;;;;;;;36.30;21.00;;;;;;;;;;106110;1288;64985;-24
2021/12/12 13:38:49;;;;;;;33.60;21.20;;;;;;;;;;106168;1286;64768;-26
2021/12/12 13:41:22;;;;;;;35.00;21.40;;;;;;;;;;106222;1287;64828;-26
2021/12/12 13:43:54;;;;;;;40.40;22.80;;;;;;;;;;106139;1287;64859;-25
2021/12/12 13:46:24;;;;;;;33.70;20.40;;;;;;;;;;106169;1286;64870;-25
2021/12/12 13:48:58;;;;;;;37.20;21.60;;;;;;;;;;106127;1287;64833;-25
2021/12/12 13:51:38;;;;;;;36.40;21.40;;;;;;;;;;106191;1286;64884;-25
2021/12/12 13:54:16;;;;;;;35.10;21.30;;;;;;;;;;106244;1286;64817;-25
2021/12/12 13:56:52;;;;;;;31.60;20.90;;;;;;;;;;105954;1288;64774;-25
2021/12/12 13:59:29;;;;;;;34.60;21.40;;;;;;;;;;106200;1288;64815;-23
2021/12/12 14:02:04;;;;;;;35.00;21.10;;;;;;;;;;106222;1285;64864;-21
2021/12/12 14:04:40;;;;;;;34.10;20.00;;;;;;;;;;106169;1288;64805;-23
2021/12/12 14:07:07;;;;;;;33.50;20.20;;;;;;;;;;106196;1285;64768;-25
2021/12/12 14:09:36;;;;;;;33.20;20.30;;;;;;;;;;106094;1288;64772;-24
2021/12/12 14:12:04;;;;;;;35.00;21.40;;;;;;;;;;106243;1286;64830;-23
2021/12/12 14:14:31;;;;;;;33.00;19.30;;;;;;;;;;106109;1288;64777;-25
2021/12/12 14:17:03;;;;;;;33.50;20.90;;;;;;;;;;106164;1288;64727;-28
2021/12/12 14:19:36;;;;;;;35.70;21.30;;;;;;;;;;106170;1289;64844;-25
2021/12/12 14:22:04;;;;;;;35.40;21.50;;;;;;;;;;106134;1288;64849;-25
2021/12/12 14:24:32;;;;;;;40.30;21.10;;;;;;;;;;106208;1285;64871;-26
2021/12/12 14:27:00;;;;;;;33.00;20.20;;;;;;;;;;106019;1286;224675;-27
2021/12/12 14:29:29;;;;;;;31.50;18.30;;;;;;;;;;106123;1287;64915;-27
2021/12/12 14:32:00;;;;;;;31.70;18.50;;;;;;;;;;106189;1279;64925;-27
2021/12/12 14:34:34;;;;;;;33.00;18.30;;;;;;;;;;106199;1288;64833;-25
2021/12/12 14:37:09;;;;;;;31.10;19.60;;;;;;;;;;106196;1286;64796;-28
2021/12/12 14:39:37;;;;;;;28.90;18.60;;;;;;;;;;106109;1287;64802;-27
2021/12/12 14:42:22;;;;;;;31.00;19.00;;;;;;;;;;105977;1290;64851;-24
2021/12/12 14:44:50;;;;;;;31.90;19.40;;;;;;;;;;106103;1291;64955;-27
2021/12/12 14:47:20;;;;;;;33.20;19.30;;;;;;;;;;106099;1287;64738;-27
2021/12/12 14:49:54;;;;;;;30.00;18.20;;;;;;;;;;106162;1285;64872;-27
2021/12/12 14:52:30;;;;;;;31.30;18.70;;;;;;;;;;106158;1287;64825;-26